createdAt,value
2018-12-10T00:01:19.797Z,97039.45
2018-12-10T00:06:13.076Z,97031.80
2018-12-10T00:11:06.543Z,97048.44
2018-12-10T00:15:59.825Z,97061.33
2018-12-10T00:26:17.794Z,97078.67
2018-12-10T00:31:11.055Z,97088.16
2018-12-10T00:36:04.326Z,97095.73
2018-12-10T00:40:57.608Z,97109.34
2018-12-10T00:45:50.884Z,97114.06
2018-12-10T01:06:58.875Z,97165.03
2018-12-10T01:11:52.498Z,97179.30
2018-12-10T01:16:45.784Z,97176.88
2018-12-10T01:21:39.068Z,97185.42
2018-12-10T01:26:32.373Z,97182.95
2018-12-10T01:31:25.779Z,97189.73
2018-12-10T01:36:19.126Z,97199.79
2018-12-10T01:57:27.119Z,97219.37
2018-12-10T02:02:20.394Z,97223.40
2018-12-10T02:07:13.683Z,97233.20
2018-12-10T02:12:06.950Z,97230.20
2018-12-10T02:17:00.242Z,97246.02
2018-12-10T02:37:00.597Z,97263.09
2018-12-10T02:41:53.874Z,97276.52
2018-12-10T02:46:47.154Z,97277.34
2018-12-10T02:51:40.423Z,97280.39
2018-12-10T03:07:22.903Z,97294.86
2018-12-10T03:12:16.180Z,97298.67
2018-12-10T03:17:09.456Z,97301.38
2018-12-10T03:22:02.727Z,97304.77
2018-12-10T03:42:37.003Z,97318.48
2018-12-10T03:47:30.279Z,97316.45
2018-12-10T03:52:23.555Z,97318.08
2018-12-10T03:57:16.839Z,97321.06
2018-12-10T04:02:10.117Z,97309.60
2018-12-10T04:07:03.374Z,97311.83
2018-12-10T04:11:56.686Z,97308.17
2018-12-10T04:16:49.936Z,97300.23
2018-12-10T04:37:56.842Z,97297.70
2018-12-10T04:42:50.148Z,97293.16
2018-12-10T04:47:43.437Z,97287.70
2018-12-10T04:52:36.804Z,97294.39
2018-12-10T04:57:30.100Z,97297.00
2018-12-10T05:18:38.060Z,97304.84
2018-12-10T05:23:31.316Z,97311.16
2018-12-10T05:28:24.611Z,97325.98
2018-12-10T05:33:17.886Z,97315.12
2018-12-10T05:38:11.183Z,97326.69
2018-12-10T05:47:55.622Z,97336.69
2018-12-10T05:52:50.546Z,97352.44
2018-12-10T05:57:44.027Z,97357.86
2018-12-10T06:02:37.319Z,97350.94
2018-12-10T06:23:44.517Z,97374.49
2018-12-10T06:28:37.835Z,97372.80
2018-12-10T06:33:31.120Z,97376.84
2018-12-10T06:38:24.439Z,97370.60
2018-12-10T06:43:17.783Z,97379.13
2018-12-10T06:48:11.163Z,97376.19
2018-12-10T06:53:04.590Z,97382.75
2018-12-10T06:57:57.875Z,97386.83
2018-12-10T07:19:05.981Z,97424.96
2018-12-10T07:23:59.314Z,97438.53
2018-12-10T07:28:53.273Z,97441.60
2018-12-10T07:33:46.576Z,97446.79
2018-12-10T07:38:39.902Z,97451.02
2018-12-10T07:59:48.096Z,97475.62
2018-12-10T08:04:42.276Z,97488.69
2018-12-10T08:09:35.776Z,97491.69
2018-12-10T08:14:29.078Z,97503.38
2018-12-10T08:24:59.967Z,97509.90
2018-12-10T08:29:53.508Z,97514.86
2018-12-10T08:34:46.914Z,97519.27
2018-12-10T08:39:40.624Z,97523.17
2018-12-10T09:00:48.375Z,97552.19
2018-12-10T09:05:41.661Z,97549.69
2018-12-10T09:10:35.065Z,97557.02
2018-12-10T09:15:28.367Z,97555.12
2018-12-10T09:20:21.743Z,97554.19
2018-12-10T09:25:15.083Z,97565.81
2018-12-10T09:30:11.106Z,97570.36
2018-12-10T09:35:05.523Z,97572.39
2018-12-10T09:39:58.971Z,97582.47
2018-12-10T10:01:06.782Z,97585.92
2018-12-10T10:06:00.062Z,97577.45
2018-12-10T10:10:53.730Z,97564.83
2018-12-10T10:15:48.562Z,97570.42
2018-12-10T10:36:56.749Z,97553.95
2018-12-10T10:41:50.210Z,97532.37
2018-12-10T10:46:45.031Z,97542.39
2018-12-10T10:51:39.529Z,97543.11
2018-12-10T10:56:32.965Z,97541.38
2018-12-10T11:06:51.297Z,97540.77
2018-12-10T11:11:44.918Z,97540.70
2018-12-10T11:16:38.310Z,97556.55
2018-12-10T11:21:33.691Z,97549.53
2018-12-10T11:42:41.177Z,97549.35
2018-12-10T11:47:34.493Z,97546.81
2018-12-10T11:52:28.191Z,97544.70
2018-12-10T11:57:21.519Z,97542.69
2018-12-10T12:02:29.586Z,97533.38
2018-12-10T12:23:32.498Z,97520.72
2018-12-10T12:28:25.884Z,97513.66
2018-12-10T12:33:19.183Z,97504.58
2018-12-10T12:38:12.884Z,97500.62
2018-12-10T12:53:56.167Z,97491.66
2018-12-10T12:58:58.564Z,97511.29
2018-12-10T13:03:52.615Z,97508.18
2018-12-10T13:08:45.947Z,97511.64
2018-12-10T13:29:52.918Z,97495.21
2018-12-10T13:34:46.713Z,97506.36
2018-12-10T13:39:40.021Z,97510.03
2018-12-10T13:44:33.343Z,97497.97
2018-12-10T14:05:40.496Z,97474.39
2018-12-10T14:10:33.881Z,97468.55
2018-12-10T14:15:27.176Z,97475.50
2018-12-10T14:20:20.484Z,97473.66
2018-12-10T14:25:23.166Z,97451.52
2018-12-10T14:41:05.960Z,97442.41
2018-12-10T14:46:01.492Z,97434.37
2018-12-10T14:50:55.215Z,97434.66
2018-12-10T14:55:48.612Z,97434.43
2018-12-10T15:16:55.959Z,97431.84
2018-12-10T15:21:49.367Z,97422.09
2018-12-10T15:26:42.679Z,97430.39
2018-12-10T15:31:35.966Z,97435.76
2018-12-10T15:36:29.251Z,97456.10
2018-12-10T15:57:36.976Z,97434.89
2018-12-10T16:02:30.648Z,97436.65
2018-12-10T16:07:24.051Z,97457.08
2018-12-10T16:12:17.327Z,97457.21
2018-12-10T16:17:16.978Z,97470.89
2018-12-10T16:27:36.026Z,97476.92
2018-12-10T16:32:29.324Z,97467.28
2018-12-10T16:37:22.735Z,97471.03
2018-12-10T16:42:16.058Z,97458.06
2018-12-10T17:03:23.107Z,97473.93
2018-12-10T17:08:16.495Z,97484.21
2018-12-10T17:13:09.771Z,97481.94
2018-12-10T17:18:03.094Z,97484.03
2018-12-10T17:22:56.556Z,97475.33
2018-12-10T17:44:04.443Z,97488.43
2018-12-10T17:48:57.731Z,97488.34
2018-12-10T17:53:51.162Z,97497.87
2018-12-10T17:58:45.015Z,97502.41
2018-12-10T18:09:07.533Z,97521.60
2018-12-10T18:14:00.799Z,97521.18
2018-12-10T18:18:54.146Z,97528.02
2018-12-10T18:23:47.511Z,97524.52
2018-12-10T18:28:40.987Z,97534.66
2018-12-10T18:49:49.068Z,97544.31
2018-12-10T18:54:42.381Z,97547.50
2018-12-10T18:59:35.752Z,97546.45
2018-12-10T19:04:29.022Z,97544.56
2018-12-10T19:25:36.740Z,97542.88
2018-12-10T19:30:30.035Z,97549.34
2018-12-10T19:35:23.310Z,97544.14
2018-12-10T19:40:16.679Z,97547.75
2018-12-10T19:45:10.019Z,97541.87
2018-12-10T19:55:28.793Z,97530.53
2018-12-10T20:00:22.253Z,97521.80
2018-12-10T20:05:15.790Z,97520.27
2018-12-10T20:10:09.433Z,97513.78
2018-12-10T20:15:02.915Z,97511.03
2018-12-10T20:36:10.423Z,97525.01
2018-12-10T20:41:03.859Z,97525.39
2018-12-10T20:45:57.183Z,97523.51
2018-12-10T20:50:50.459Z,97532.56
2018-12-10T20:55:43.732Z,97535.20
2018-12-10T21:16:51.065Z,97517.42
2018-12-10T21:21:44.336Z,97527.72
2018-12-10T21:26:37.620Z,97517.37
2018-12-10T21:31:30.904Z,97531.36
2018-12-10T21:36:24.408Z,97534.66
2018-12-10T21:41:40.816Z,97532.56
2018-12-10T21:46:34.103Z,97542.03
2018-12-10T21:51:27.375Z,97549.50
2018-12-10T21:56:20.837Z,97549.63
2018-12-10T22:01:14.168Z,97556.17
2018-12-10T22:22:22.736Z,97573.26
2018-12-10T22:27:16.026Z,97578.14
2018-12-10T22:32:09.315Z,97576.34
2018-12-10T22:37:02.594Z,97566.28
2018-12-10T22:41:55.870Z,97557.51
2018-12-10T23:03:03.598Z,97549.44
2018-12-10T23:07:56.888Z,97539.22
2018-12-10T23:12:50.170Z,97547.31
2018-12-10T23:17:44.440Z,97548.13
2018-12-10T23:28:02.926Z,97556.09
2018-12-10T23:32:56.227Z,97546.67
2018-12-10T23:37:49.504Z,97542.96
2018-12-10T23:47:56.950Z,97548.77
2018-12-10T23:52:50.244Z,97556.72
2018-12-10T23:57:43.564Z,97542.93
